KTOC

Toccoa Rg Letourneau Field Airport

Toccoa, Georgia, USA
METAR KTOC 160035Z AUTO 24004KT 10SM SCT043 OVC050 09/06 A2997 RMK AO2 T00850062
Observed Flight Rules
Dec-16 @ 00:35 UTC (41 minutes ago) Visual Flight Rules
Wind Visibility Clouds
240° at 4 knots 10 miles
  • Scattered at 4,300' AGL
  • Overcast at 5,000' AGL
Temperatures Readings
Current 9°C / 48°F
Dewpoint 6°C / 43°F
Humidity 82%
Altimeter 29.97" Hg
Pressure 1015 hPa
Elevation 304
METAR KTOC 160035Z AUTO 24004KT 10SM SCT043 OVC050 09/06 A2997 RMK AO2 T00850062
Observed Flight Rules
Dec-16 @ 00:35 UTC
(41 minutes ago)
VFR
Wind Visibility
240° at 4 knots 10 miles
Clouds
  • Scattered at 4,300' AGL
  • Overcast at 5,000' AGL
Temperature Dewpoint
9°C / 48°F 6°C / 43°F
Humidity Altimeter Pressure
82% 29.97" Hg 1015 hPa